Time;durP1;ratioP1;P1;durP2;ratioP2;P2;SDS_P1;SDS_P2;PMS_P1;PMS_P2;Temp;Humidity;BMP_temperature;BMP_pressure;BME280_temperature;BME280_humidity;BME280_pressure;Samples;Min_cycle;Max_cycle;Signal;HPM_P1;HPM_P2
2021/12/27 00:02:15;;;;;;;4.57;1.98;;;;;;;;;;5089895;28;20044;-74
2021/12/27 00:04:41;;;;;;;4.72;2.30;;;;;;;;;;5089213;28;20442;-74
2021/12/27 00:07:08;;;;;;;3.03;1.80;;;;;;;;;;5089959;28;20468;-74
2021/12/27 00:09:35;;;;;;;5.25;2.17;;;;;;;;;;5088640;28;20048;-74
2021/12/27 00:12:01;;;;;;;8.52;2.42;;;;;;;;;;5089239;28;20495;-74
2021/12/27 00:14:27;;;;;;;6.80;2.65;;;;;;;;;;5089529;28;20051;-75
2021/12/27 00:16:53;;;;;;;5.20;1.58;;;;;;;;;;5089476;28;20051;-72
2021/12/27 00:19:20;;;;;;;4.75;2.22;;;;;;;;;;5088755;28;20047;-74
2021/12/27 00:21:46;;;;;;;10.18;2.38;;;;;;;;;;5089147;28;20073;-74
2021/12/27 00:24:12;;;;;;;8.32;2.33;;;;;;;;;;5089304;28;20051;-75
2021/12/27 00:26:38;;;;;;;4.10;1.85;;;;;;;;;;5089095;28;20047;-74
2021/12/27 00:29:04;;;;;;;4.15;1.80;;;;;;;;;;5088528;28;20153;-74
2021/12/27 00:31:30;;;;;;;2.88;1.88;;;;;;;;;;5089321;28;20521;-74
2021/12/27 00:33:56;;;;;;;4.70;2.30;;;;;;;;;;5089053;28;20044;-75
2021/12/27 00:36:22;;;;;;;6.43;2.20;;;;;;;;;;5089159;28;20469;-75
2021/12/27 00:38:48;;;;;;;3.53;1.80;;;;;;;;;;5088458;28;20051;-75
2021/12/27 00:41:14;;;;;;;4.70;1.90;;;;;;;;;;5089111;28;20046;-75
2021/12/27 00:43:40;;;;;;;3.58;1.90;;;;;;;;;;5087748;28;20055;-75
2021/12/27 00:46:06;;;;;;;4.80;1.73;;;;;;;;;;5087744;28;20062;-75
2021/12/27 00:48:32;;;;;;;4.28;1.65;;;;;;;;;;5088771;28;20506;-75
2021/12/27 00:50:58;;;;;;;4.40;2.03;;;;;;;;;;5087835;28;20052;-75
2021/12/27 00:53:24;;;;;;;4.30;1.77;;;;;;;;;;5088983;28;20131;-75
2021/12/27 00:55:50;;;;;;;4.95;1.88;;;;;;;;;;5088683;28;20048;-75
2021/12/27 00:58:16;;;;;;;4.28;2.20;;;;;;;;;;5087802;28;20051;-75
2021/12/27 01:00:43;;;;;;;4.60;1.85;;;;;;;;;;5087119;28;20066;-75
2021/12/27 01:03:09;;;;;;;4.78;2.00;;;;;;;;;;5089280;28;20087;-75
2021/12/27 01:05:35;;;;;;;6.63;2.55;;;;;;;;;;5088657;28;20097;-75
2021/12/27 01:08:01;;;;;;;6.55;2.40;;;;;;;;;;5087326;28;20508;-75
2021/12/27 01:17:49;;;;;;;4.70;2.08;;;;;;;;;;5087960;28;20080;-75
2021/12/27 01:20:17;;;;;;;6.43;2.00;;;;;;;;;;5087995;28;20445;-76
2021/12/27 01:22:43;;;;;;;3.47;1.85;;;;;;;;;;5089707;28;20052;-77
2021/12/27 01:25:12;;;;;;;2.83;1.63;;;;;;;;;;5091674;28;20050;-77
2021/12/27 01:27:38;;;;;;;;;;;;;;;;;;5090822;28;20048;-77
2021/12/27 01:30:05;;;;;;;5.82;1.65;;;;;;;;;;5091355;28;19927;-77
2021/12/27 01:32:37;;;;;;;3.90;2.03;;;;;;;;;;5091082;28;20058;-77
2021/12/27 01:35:03;;;;;;;2.70;1.90;;;;;;;;;;5091578;28;20486;-77
2021/12/27 01:37:29;;;;;;;5.35;2.22;;;;;;;;;;5091372;28;20514;-77
2021/12/27 01:39:55;;;;;;;3.80;2.10;;;;;;;;;;5090268;28;20533;-77
2021/12/27 01:42:22;;;;;;;3.03;1.70;;;;;;;;;;5091605;28;20070;-78
2021/12/27 01:44:48;;;;;;;3.20;1.75;;;;;;;;;;5073925;28;20052;-78
2021/12/27 01:47:14;;;;;;;6.65;2.42;;;;;;;;;;5092126;28;20450;-78
2021/12/27 01:49:40;;;;;;;3.05;1.58;;;;;;;;;;5089998;28;20044;-78
2021/12/27 01:52:06;;;;;;;2.90;1.58;;;;;;;;;;5091596;28;20046;-77
2021/12/27 01:54:33;;;;;;;4.78;2.03;;;;;;;;;;5091009;28;20084;-77
2021/12/27 01:57:00;;;;;;;6.78;2.58;;;;;;;;;;5091152;28;20490;-76
2021/12/27 01:59:26;;;;;;;7.32;1.90;;;;;;;;;;5091285;28;20081;-75
2021/12/27 02:01:52;;;;;;;8.95;2.30;;;;;;;;;;5090990;28;20041;-74
2021/12/27 02:04:18;;;;;;;7.55;2.13;;;;;;;;;;5090673;28;20539;-73
2021/12/27 02:06:44;;;;;;;3.92;1.80;;;;;;;;;;5090890;28;20070;-74
2021/12/27 02:09:10;;;;;;;3.17;1.88;;;;;;;;;;5091021;28;20414;-74
2021/12/27 02:11:36;;;;;;;7.75;2.10;;;;;;;;;;5090695;28;20052;-74
2021/12/27 02:14:04;;;;;;;5.97;2.30;;;;;;;;;;5090537;28;20043;-74
2021/12/27 02:16:30;;;;;;;5.20;2.10;;;;;;;;;;5089362;28;20048;-74
2021/12/27 02:18:56;;;;;;;4.07;2.00;;;;;;;;;;5090587;28;20524;-74
2021/12/27 02:21:22;;;;;;;4.20;1.88;;;;;;;;;;5090853;28;20066;-75
2021/12/27 02:23:50;;;;;;;5.30;2.28;;;;;;;;;;5089799;28;20047;-76
2021/12/27 02:26:16;;;;;;;6.45;1.90;;;;;;;;;;5090731;28;20121;-76
2021/12/27 02:28:43;;;;;;;5.60;2.00;;;;;;;;;;5089576;28;20040;-76
2021/12/27 02:31:09;;;;;;;4.45;1.90;;;;;;;;;;5089161;28;20079;-76
2021/12/27 02:33:37;;;;;;;4.60;1.90;;;;;;;;;;5090102;28;20043;-76
2021/12/27 02:36:05;;;;;;;7.05;2.03;;;;;;;;;;5089140;28;20073;-76
2021/12/27 02:38:33;;;;;;;3.45;1.77;;;;;;;;;;5089933;28;20048;-76
2021/12/27 02:41:00;;;;;;;5.93;2.05;;;;;;;;;;5090625;28;20505;-76
2021/12/27 02:43:27;;;;;;;5.20;2.20;;;;;;;;;;5072253;28;20040;-76
2021/12/27 02:45:55;;;;;;;5.82;2.13;;;;;;;;;;5089766;28;20513;-75
2021/12/27 02:48:22;;;;;;;3.70;1.90;;;;;;;;;;5090572;28;20044;-75
2021/12/27 02:50:49;;;;;;;3.10;1.98;;;;;;;;;;5090235;28;20051;-76
2021/12/27 02:53:15;;;;;;;4.50;2.00;;;;;;;;;;5088962;28;20440;-75
2021/12/27 02:55:42;;;;;;;5.00;1.88;;;;;;;;;;5090062;28;20452;-75
2021/12/27 02:58:08;;;;;;;6.30;1.90;;;;;;;;;;5089651;28;20048;-75
2021/12/27 03:00:39;;;;;;;4.32;2.00;;;;;;;;;;5089761;28;20506;-75
2021/12/27 03:03:05;;;;;;;3.28;1.80;;;;;;;;;;5090593;28;20051;-75
2021/12/27 03:05:32;;;;;;;2.75;1.80;;;;;;;;;;5090658;28;20087;-75
2021/12/27 03:08:00;;;;;;;4.25;2.00;;;;;;;;;;5090549;28;20075;-73
2021/12/27 03:10:27;;;;;;;3.30;1.70;;;;;;;;;;5090576;28;20073;-73
2021/12/27 03:12:54;;;;;;;6.30;2.35;;;;;;;;;;5089945;28;20114;-74
2021/12/27 03:15:23;;;;;;;3.25;1.83;;;;;;;;;;5090838;28;20048;-74
2021/12/27 03:17:50;;;;;;;11.85;1.90;;;;;;;;;;5089261;28;20071;-74
2021/12/27 03:20:17;;;;;;;3.58;2.08;;;;;;;;;;5090326;28;20087;-74
2021/12/27 03:22:44;;;;;;;4.97;2.05;;;;;;;;;;5090464;28;20086;-75
2021/12/27 03:25:15;;;;;;;8.13;2.30;;;;;;;;;;5072176;28;20056;-78
2021/12/27 03:27:41;;;;;;;11.32;2.28;;;;;;;;;;5071792;28;20481;-74
2021/12/27 03:30:09;;;;;;;3.47;2.03;;;;;;;;;;5090023;28;20043;-74
2021/12/27 03:32:36;;;;;;;7.40;2.20;;;;;;;;;;5088705;28;20058;-74
2021/12/27 03:35:10;;;;;;;11.98;2.50;;;;;;;;;;5090080;28;20406;-73
2021/12/27 03:37:37;;;;;;;6.57;2.22;;;;;;;;;;5089963;28;20097;-74
2021/12/27 03:40:05;;;;;;;5.43;2.45;;;;;;;;;;5088895;28;20406;-74
2021/12/27 03:42:31;;;;;;;6.35;2.22;;;;;;;;;;5089484;28;20048;-74
2021/12/27 03:44:57;;;;;;;6.80;2.10;;;;;;;;;;5089104;28;20086;-72
2021/12/27 03:47:23;;;;;;;5.40;1.90;;;;;;;;;;5090141;28;20043;-74
2021/12/27 03:49:49;;;;;;;6.65;2.00;;;;;;;;;;5089726;28;20052;-74
2021/12/27 03:52:15;;;;;;;5.65;2.05;;;;;;;;;;5089749;28;20048;-74
2021/12/27 03:54:41;;;;;;;4.78;2.25;;;;;;;;;;5089396;28;20440;-74
2021/12/27 03:57:07;;;;;;;3.38;1.67;;;;;;;;;;5089526;28;20044;-74
2021/12/27 03:59:51;;;;;;;5.00;2.28;;;;;;;;;;5089519;28;20486;-74
2021/12/27 04:02:18;;;;;;;4.72;2.05;;;;;;;;;;5089650;28;20143;-74
2021/12/27 04:04:44;;;;;;;5.80;2.28;;;;;;;;;;5088910;28;20043;-74
2021/12/27 04:07:10;;;;;;;4.13;2.20;;;;;;;;;;5088976;28;20055;-74
2021/12/27 04:09:37;;;;;;;3.15;1.85;;;;;;;;;;5089358;28;20043;-74
2021/12/27 04:12:04;;;;;;;10.30;2.17;;;;;;;;;;5087561;28;20498;-74
2021/12/27 04:14:30;;;;;;;4.25;2.10;;;;;;;;;;5088755;28;20403;-74
2021/12/27 04:16:56;;;;;;;4.53;2.10;;;;;;;;;;5088340;28;20565;-73
2021/12/27 04:19:22;;;;;;;3.25;1.95;;;;;;;;;;5088811;28;20395;-74
2021/12/27 04:21:48;;;;;;;3.78;2.10;;;;;;;;;;5088505;28;20111;-75
2021/12/27 04:24:14;;;;;;;3.67;2.20;;;;;;;;;;5088655;28;20050;-75
2021/12/27 04:26:40;;;;;;;5.18;1.73;;;;;;;;;;5088771;28;20044;-76
2021/12/27 04:29:07;;;;;;;3.80;1.70;;;;;;;;;;5088717;28;20089;-76
2021/12/27 04:31:33;;;;;;;3.60;1.90;;;;;;;;;;5086855;28;20164;-76
2021/12/27 04:33:59;;;;;;;4.90;1.88;;;;;;;;;;5087464;28;20067;-76
2021/12/27 04:36:25;;;;;;;3.80;2.45;;;;;;;;;;5087304;28;20048;-76
2021/12/27 04:38:51;;;;;;;6.10;2.00;;;;;;;;;;5088242;28;20253;-76
2021/12/27 04:41:19;;;;;;;2.40;1.70;;;;;;;;;;5087774;28;20127;-76
2021/12/27 04:43:46;;;;;;;4.20;2.00;;;;;;;;;;5088627;28;20578;-76
2021/12/27 04:46:12;;;;;;;4.05;2.13;;;;;;;;;;5088476;28;20075;-76
2021/12/27 04:48:38;;;;;;;4.68;2.30;;;;;;;;;;5088279;28;20513;-76
2021/12/27 04:51:04;;;;;;;2.83;1.88;;;;;;;;;;5088731;28;20051;-76
2021/12/27 04:53:30;;;;;;;4.82;2.10;;;;;;;;;;5086972;28;20131;-76
2021/12/27 04:55:56;;;;;;;3.20;1.48;;;;;;;;;;5087221;28;20561;-76
2021/12/27 04:58:23;;;;;;;5.75;1.75;;;;;;;;;;5091379;28;20039;-76
2021/12/27 05:00:50;;;;;;;3.90;1.92;;;;;;;;;;5092218;28;20520;-74
2021/12/27 05:03:16;;;;;;;2.90;1.60;;;;;;;;;;5092373;28;20054;-74
2021/12/27 05:05:45;;;;;;;2.58;1.55;;;;;;;;;;5092075;28;20056;-75
2021/12/27 05:08:12;;;;;;;5.85;2.58;;;;;;;;;;5091905;28;20464;-75
2021/12/27 05:10:38;;;;;;;4.38;2.00;;;;;;;;;;5091905;28;20044;-75
2021/12/27 05:13:05;;;;;;;4.10;2.25;;;;;;;;;;5092064;28;20132;-75
2021/12/27 05:15:31;;;;;;;4.05;2.17;;;;;;;;;;5092535;28;20150;-75
2021/12/27 05:17:57;;;;;;;3.35;1.80;;;;;;;;;;5090489;28;20048;-75
2021/12/27 05:20:23;;;;;;;4.03;2.28;;;;;;;;;;5090284;28;20117;-75
2021/12/27 05:22:49;;;;;;;3.53;1.92;;;;;;;;;;5091835;28;20047;-75
2021/12/27 05:25:18;;;;;;;4.38;1.95;;;;;;;;;;5090767;28;20075;-75
2021/12/27 05:27:45;;;;;;;3.75;2.30;;;;;;;;;;5091655;28;20044;-75
2021/12/27 05:30:12;;;;;;;4.95;2.20;;;;;;;;;;5092107;28;20040;-75
2021/12/27 05:32:40;;;;;;;3.38;2.00;;;;;;;;;;5091311;28;20076;-74
2021/12/27 05:35:06;;;;;;;7.57;2.78;;;;;;;;;;5091943;28;20052;-74
2021/12/27 05:37:33;;;;;;;3.60;1.70;;;;;;;;;;5090572;28;20080;-75
2021/12/27 05:40:04;;;;;;;4.93;1.92;;;;;;;;;;5091822;28;20131;-75
2021/12/27 05:42:31;;;;;;;3.22;1.85;;;;;;;;;;5091380;28;20087;-74
2021/12/27 05:44:57;;;;;;;4.60;2.17;;;;;;;;;;5091265;28;20040;-74
2021/12/27 05:47:23;;;;;;;4.30;2.15;;;;;;;;;;5091438;28;20044;-74
2021/12/27 05:49:49;;;;;;;4.43;1.88;;;;;;;;;;5090103;28;20048;-74
2021/12/27 05:52:16;;;;;;;4.22;2.45;;;;;;;;;;5090103;28;20130;-74
2021/12/27 05:54:42;;;;;;;4.07;2.03;;;;;;;;;;5089638;28;20127;-75
2021/12/27 05:57:08;;;;;;;4.35;1.85;;;;;;;;;;5091341;28;20083;-75
2021/12/27 05:59:34;;;;;;;3.97;1.70;;;;;;;;;;5091385;28;20051;-74
2021/12/27 06:02:00;;;;;;;3.65;1.70;;;;;;;;;;5073516;28;20164;-74
2021/12/27 06:04:26;;;;;;;3.50;1.65;;;;;;;;;;5091047;28;20043;-74
2021/12/27 06:06:52;;;;;;;2.95;1.80;;;;;;;;;;5091056;28;20047;-75
2021/12/27 06:09:19;;;;;;;2.75;1.80;;;;;;;;;;5090443;28;20044;-75
2021/12/27 06:11:45;;;;;;;3.70;2.13;;;;;;;;;;5089048;28;20139;-74
2021/12/27 06:14:11;;;;;;;21.90;3.28;;;;;;;;;;5090676;28;20044;-77
2021/12/27 06:16:37;;;;;;;4.43;2.13;;;;;;;;;;5089591;28;20040;-76
2021/12/27 06:19:03;;;;;;;7.03;2.40;;;;;;;;;;5090779;28;20046;-76
2021/12/27 06:21:31;;;;;;;6.93;2.50;;;;;;;;;;5090776;28;20091;-73
2021/12/27 06:23:57;;;;;;;10.35;2.40;;;;;;;;;;5090823;28;20055;-73
2021/12/27 06:26:23;;;;;;;6.18;2.03;;;;;;;;;;5091478;28;20044;-73
2021/12/27 06:28:49;;;;;;;6.45;3.00;;;;;;;;;;5091087;28;20105;-73
2021/12/27 06:31:15;;;;;;;5.82;2.28;;;;;;;;;;5091102;28;20040;-74
2021/12/27 06:33:41;;;;;;;5.97;2.08;;;;;;;;;;5091113;28;20044;-74
2021/12/27 06:36:07;;;;;;;6.22;2.20;;;;;;;;;;5091125;28;20036;-74
2021/12/27 06:38:33;;;;;;;4.25;2.20;;;;;;;;;;5090585;28;20166;-74
2021/12/27 06:41:00;;;;;;;5.47;2.03;;;;;;;;;;5089920;28;20036;-73
2021/12/27 06:43:28;;;;;;;6.10;2.10;;;;;;;;;;5091053;28;20044;-73
2021/12/27 06:45:54;;;;;;;4.07;2.35;;;;;;;;;;5090500;28;20549;-74
2021/12/27 06:48:20;;;;;;;4.07;2.00;;;;;;;;;;5090710;28;20494;-73
2021/12/27 06:50:46;;;;;;;3.20;1.92;;;;;;;;;;5090725;28;20044;-73
2021/12/27 06:53:12;;;;;;;4.13;2.22;;;;;;;;;;5089416;28;20044;-73
2021/12/27 06:55:38;;;;;;;4.18;2.13;;;;;;;;;;5091063;28;20599;-73
2021/12/27 06:58:04;;;;;;;8.63;2.53;;;;;;;;;;5090913;28;20040;-71
2021/12/27 07:00:30;;;;;;;4.20;2.10;;;;;;;;;;5090257;28;20089;-72
2021/12/27 07:02:56;;;;;;;3.47;1.80;;;;;;;;;;5089265;28;20051;-75
2021/12/27 07:05:22;;;;;;;3.60;2.10;;;;;;;;;;5090648;28;20050;-74
2021/12/27 07:07:48;;;;;;;4.35;2.20;;;;;;;;;;5090554;28;20085;-80
2021/12/27 07:10:17;;;;;;;4.00;2.08;;;;;;;;;;5090455;28;20043;-74
2021/12/27 07:12:44;;;;;;;3.72;2.38;;;;;;;;;;5084304;28;20498;-74
2021/12/27 07:15:10;;;;;;;3.58;2.15;;;;;;;;;;5090329;28;20052;-73
2021/12/27 07:17:36;;;;;;;3.80;1.95;;;;;;;;;;5089803;28;20047;-73
2021/12/27 07:20:03;;;;;;;7.30;2.22;;;;;;;;;;5090591;28;20052;-77
2021/12/27 07:22:29;;;;;;;11.45;2.40;;;;;;;;;;5089840;28;20044;-75
2021/12/27 07:24:55;;;;;;;6.05;2.05;;;;;;;;;;5089783;28;20120;-75
2021/12/27 07:27:21;;;;;;;7.18;2.53;;;;;;;;;;5090195;28;20048;-72
2021/12/27 07:29:48;;;;;;;9.57;2.60;;;;;;;;;;5088745;28;20086;-72
2021/12/27 07:32:14;;;;;;;8.38;2.47;;;;;;;;;;5089694;28;20109;-72
2021/12/27 07:34:40;;;;;;;8.30;2.25;;;;;;;;;;5089891;28;20087;-71
2021/12/27 07:37:06;;;;;;;6.20;2.47;;;;;;;;;;5089843;28;20078;-71
2021/12/27 07:39:32;;;;;;;4.40;1.88;;;;;;;;;;5090160;28;20047;-72
2021/12/27 07:41:58;;;;;;;4.43;2.00;;;;;;;;;;5090041;28;20058;-72
2021/12/27 07:44:24;;;;;;;11.43;2.85;;;;;;;;;;5089853;28;20106;-72
2021/12/27 07:46:51;;;;;;;4.82;1.83;;;;;;;;;;5087791;28;20533;-72
2021/12/27 07:49:17;;;;;;;7.18;2.10;;;;;;;;;;5089976;28;20039;-71
2021/12/27 07:51:44;;;;;;;4.63;2.40;;;;;;;;;;5089395;28;20048;-72
2021/12/27 07:54:10;;;;;;;4.20;2.05;;;;;;;;;;5089876;28;20063;-72
2021/12/27 07:56:37;;;;;;;4.10;2.47;;;;;;;;;;5088937;28;20405;-72
2021/12/27 07:59:04;;;;;;;3.42;1.85;;;;;;;;;;5088894;28;20048;-73
2021/12/27 08:01:31;;;;;;;8.93;2.80;;;;;;;;;;5088575;28;20448;-73
2021/12/27 08:03:57;;;;;;;3.88;2.35;;;;;;;;;;5088340;28;20039;-74
2021/12/27 08:06:23;;;;;;;5.55;2.50;;;;;;;;;;5089620;28;20410;-72
2021/12/27 08:08:49;;;;;;;4.40;2.25;;;;;;;;;;5089302;28;20044;-72
2021/12/27 08:11:15;;;;;;;5.57;2.08;;;;;;;;;;5087586;28;20087;-72
2021/12/27 08:13:42;;;;;;;5.30;2.47;;;;;;;;;;5088198;28;20052;-74
2021/12/27 08:16:11;;;;;;;2.95;2.00;;;;;;;;;;5087988;28;20575;-73
2021/12/27 08:18:37;;;;;;;3.85;1.98;;;;;;;;;;5087801;28;20048;-73
2021/12/27 08:21:04;;;;;;;3.15;1.92;;;;;;;;;;5071747;28;20040;-73
2021/12/27 08:23:30;;;;;;;7.20;2.28;;;;;;;;;;5088785;28;20048;-73
2021/12/27 08:25:56;;;;;;;4.25;2.28;;;;;;;;;;5089148;28;20516;-73
2021/12/27 08:28:22;;;;;;;5.63;1.98;;;;;;;;;;5089517;28;20036;-73
2021/12/27 08:30:50;;;;;;;6.10;2.63;;;;;;;;;;5090772;28;20052;-72
2021/12/27 08:33:16;;;;;;;7.00;3.03;;;;;;;;;;5094323;28;20054;-72
2021/12/27 08:35:42;;;;;;;13.35;2.78;;;;;;;;;;5096107;28;20486;-74
2021/12/27 08:38:08;;;;;;;9.60;2.60;;;;;;;;;;5094453;28;20062;-73
2021/12/27 08:40:34;;;;;;;8.73;2.97;;;;;;;;;;5095979;28;20083;-74
2021/12/27 08:43:02;;;;;;;6.50;2.70;;;;;;;;;;5094871;28;20105;-71
2021/12/27 08:45:28;;;;;;;10.77;3.13;;;;;;;;;;5095981;28;20085;-74
2021/12/27 08:47:54;;;;;;;8.45;3.10;;;;;;;;;;5094550;28;20492;-72
2021/12/27 08:50:20;;;;;;;5.47;3.08;;;;;;;;;;5096125;28;20047;-73
2021/12/27 08:52:47;;;;;;;8.07;3.53;;;;;;;;;;5094566;28;20040;-74
2021/12/27 08:55:14;;;;;;;6.15;3.25;;;;;;;;;;5094517;28;20052;-77
2021/12/27 08:57:41;;;;;;;7.35;3.40;;;;;;;;;;5094199;28;20449;-73
2021/12/27 09:00:09;;;;;;;7.28;3.60;;;;;;;;;;5096084;28;20040;-73
2021/12/27 09:02:35;;;;;;;7.50;3.50;;;;;;;;;;5095160;28;20032;-72
2021/12/27 09:05:01;;;;;;;8.93;3.70;;;;;;;;;;5094262;28;20521;-73
2021/12/27 09:07:27;;;;;;;6.25;3.70;;;;;;;;;;5095417;28;20090;-72
2021/12/27 09:09:53;;;;;;;7.63;3.53;;;;;;;;;;5094393;28;20052;-74
2021/12/27 09:12:19;;;;;;;5.97;3.50;;;;;;;;;;5095835;28;20052;-73
2021/12/27 09:14:45;;;;;;;8.77;3.63;;;;;;;;;;5093484;28;20490;-75
2021/12/27 09:17:11;;;;;;;8.75;3.53;;;;;;;;;;5076826;28;20048;-73
2021/12/27 09:19:38;;;;;;;8.48;4.00;;;;;;;;;;5095762;28;20036;-75
2021/12/27 09:22:05;;;;;;;8.18;3.55;;;;;;;;;;5077896;28;20052;-75
2021/12/27 09:24:31;;;;;;;8.25;3.83;;;;;;;;;;5093707;28;20048;-76
2021/12/27 09:26:58;;;;;;;12.68;4.32;;;;;;;;;;5094524;28;20044;-75
2021/12/27 09:29:24;;;;;;;11.32;4.05;;;;;;;;;;5095523;28;20040;-75
2021/12/27 09:31:50;;;;;;;14.52;4.47;;;;;;;;;;5093626;28;20070;-75
2021/12/27 09:34:17;;;;;;;8.38;3.80;;;;;;;;;;5077318;28;20051;-75
2021/12/27 09:36:43;;;;;;;9.05;4.63;;;;;;;;;;5095150;28;20410;-76
2021/12/27 09:39:09;;;;;;;8.00;3.67;;;;;;;;;;5094001;28;20116;-76
2021/12/27 09:41:35;;;;;;;10.52;3.72;;;;;;;;;;5095510;28;20044;-75
2021/12/27 09:44:02;;;;;;;7.13;3.72;;;;;;;;;;5089733;28;20054;-72
2021/12/27 09:46:28;;;;;;;8.88;4.18;;;;;;;;;;5091497;28;20059;-72
2021/12/27 09:48:55;;;;;;;12.68;4.90;;;;;;;;;;5090806;28;20052;-73
2021/12/27 09:51:22;;;;;;;9.27;4.03;;;;;;;;;;5091938;28;20043;-73
2021/12/27 09:53:48;;;;;;;11.88;4.82;;;;;;;;;;5090738;28;20047;-72
2021/12/27 09:56:14;;;;;;;10.35;3.88;;;;;;;;;;5090279;28;20119;-72
2021/12/27 09:58:40;;;;;;;8.70;3.92;;;;;;;;;;5091921;28;20448;-73
2021/12/27 10:01:07;;;;;;;10.88;3.80;;;;;;;;;;5090669;28;20415;-74
2021/12/27 10:03:50;;;;;;;6.55;3.50;;;;;;;;;;5091826;28;20036;-71
2021/12/27 10:06:17;;;;;;;8.60;3.83;;;;;;;;;;5082531;28;20043;-72
2021/12/27 10:08:45;;;;;;;8.30;3.78;;;;;;;;;;5090378;28;20540;-72
2021/12/27 10:11:25;;;;;;;7.88;3.75;;;;;;;;;;5090162;28;20486;-72
2021/12/27 10:13:58;;;;;;;7.30;4.18;;;;;;;;;;5088216;28;20126;-71
2021/12/27 10:16:24;;;;;;;6.15;3.65;;;;;;;;;;5089351;28;20387;-72
2021/12/27 10:18:57;;;;;;;6.90;3.53;;;;;;;;;;5088994;28;20044;-72
2021/12/27 10:21:24;;;;;;;7.55;3.72;;;;;;;;;;5089620;28;20040;-72
2021/12/27 10:24:00;;;;;;;6.85;3.35;;;;;;;;;;5105367;28;20044;-73
2021/12/27 10:26:30;;;;;;;7.53;3.47;;;;;;;;;;5087315;28;20536;-72
2021/12/27 10:29:16;;;;;;;8.75;3.30;;;;;;;;;;5087648;28;21480;-73
2021/12/27 10:31:56;;;;;;;7.82;3.97;;;;;;;;;;5088740;28;20050;-72
2021/12/27 10:34:24;;;;;;;9.45;3.92;;;;;;;;;;5089595;28;20044;-72
2021/12/27 10:37:01;;;;;;;6.80;3.85;;;;;;;;;;5089104;28;20039;-73
2021/12/27 10:39:46;;;;;;;6.88;3.45;;;;;;;;;;5089305;28;20048;-73
2021/12/27 10:42:16;;;;;;;7.22;3.72;;;;;;;;;;5088106;28;20040;-72
2021/12/27 10:44:43;;;;;;;8.05;3.97;;;;;;;;;;5089102;28;20036;-73
2021/12/27 10:47:29;;;;;;;6.68;3.55;;;;;;;;;;5071583;28;20122;-73
2021/12/27 10:50:02;;;;;;;8.80;4.18;;;;;;;;;;5088228;28;20212;-72
2021/12/27 10:53:00;;;;;;;8.18;3.72;;;;;;;;;;5089228;28;20486;-75
2021/12/27 10:55:34;;;;;;;8.00;4.20;;;;;;;;;;5070392;28;20222;-73
2021/12/27 10:58:09;;;;;;;7.03;3.60;;;;;;;;;;5086414;28;20051;-75
2021/12/27 11:00:36;;;;;;;22.65;5.35;;;;;;;;;;5088103;28;20048;-75
2021/12/27 11:03:02;;;;;;;9.75;3.88;;;;;;;;;;5090988;28;20504;-75
2021/12/27 11:05:29;;;;;;;10.50;3.97;;;;;;;;;;5088644;28;20201;-75
2021/12/27 11:08:01;;;;;;;8.10;4.13;;;;;;;;;;5088758;28;20492;-72
2021/12/27 11:10:33;;;;;;;6.68;3.67;;;;;;;;;;5090250;28;20059;-72
2021/12/27 11:12:59;;;;;;;8.02;4.20;;;;;;;;;;5087867;28;20051;-73
2021/12/27 11:15:33;;;;;;;7.30;3.85;;;;;;;;;;5089260;28;20075;-74
2021/12/27 11:17:59;;;;;;;9.68;4.47;;;;;;;;;;5089089;28;20047;-75
2021/12/27 11:20:26;;;;;;;10.45;4.20;;;;;;;;;;5088931;28;20040;-74
2021/12/27 11:22:54;;;;;;;8.55;3.88;;;;;;;;;;5088971;28;20422;-73
2021/12/27 11:25:22;;;;;;;8.23;3.83;;;;;;;;;;5071948;28;20318;-74
2021/12/27 11:27:49;;;;;;;8.57;4.10;;;;;;;;;;5072074;28;20051;-73
2021/12/27 11:30:22;;;;;;;9.02;4.18;;;;;;;;;;5090112;28;20134;-73
2021/12/27 11:33:00;;;;;;;6.72;3.90;;;;;;;;;;5072086;28;20406;-73
2021/12/27 11:35:30;;;;;;;8.43;4.30;;;;;;;;;;5089411;28;20448;-73
2021/12/27 11:37:59;;;;;;;;;;;;;;;;;;5071965;28;20040;-72
2021/12/27 11:40:26;;;;;;;7.68;3.83;;;;;;;;;;5089776;28;20336;-72
2021/12/27 11:42:52;;;;;;;7.90;3.88;;;;;;;;;;5087936;28;20052;-74
2021/12/27 11:45:37;;;;;;;8.57;4.20;;;;;;;;;;5071124;28;20185;-73
2021/12/27 11:48:29;;;;;;;8.35;4.22;;;;;;;;;;5089976;28;20066;-73
2021/12/27 11:51:03;;;;;;;6.47;3.88;;;;;;;;;;5085839;28;20135;-76
2021/12/27 11:53:31;;;;;;;8.20;4.25;;;;;;;;;;5071650;28;20506;-73
2021/12/27 11:55:57;;;;;;;10.40;5.05;;;;;;;;;;5071837;28;20048;-75
2021/12/27 11:58:37;;;;;;;10.23;4.28;;;;;;;;;;5088860;28;20484;-74
2021/12/27 12:01:07;;;;;;;10.13;4.60;;;;;;;;;;5090010;28;20044;-74
2021/12/27 12:03:39;;;;;;;8.25;4.30;;;;;;;;;;5089398;28;20048;-75
2021/12/27 12:06:05;;;;;;;7.07;4.22;;;;;;;;;;5087923;28;20143;-74
2021/12/27 12:08:48;;;;;;;9.18;4.65;;;;;;;;;;5088984;28;20097;-73
2021/12/27 12:11:14;;;;;;;7.72;4.10;;;;;;;;;;5088884;28;20074;-74
2021/12/27 12:13:42;;;;;;;8.77;4.32;;;;;;;;;;5089798;28;20056;-74
2021/12/27 12:16:11;;;;;;;9.05;4.40;;;;;;;;;;5088125;28;20464;-75
2021/12/27 12:18:53;;;;;;;7.63;4.38;;;;;;;;;;5088388;28;20056;-75
2021/12/27 12:21:34;;;;;;;8.88;4.40;;;;;;;;;;5088899;28;20044;-75
2021/12/27 12:24:00;;;;;;;11.30;4.97;;;;;;;;;;5088628;28;20058;-74
2021/12/27 12:26:28;;;;;;;8.15;4.47;;;;;;;;;;5070852;28;20091;-74
2021/12/27 12:29:01;;;;;;;9.05;4.22;;;;;;;;;;5087324;28;20046;-76
2021/12/27 12:31:32;;;;;;;9.35;5.03;;;;;;;;;;5087030;28;20063;-75
2021/12/27 12:34:19;;;;;;;8.73;4.72;;;;;;;;;;5089494;28;20039;-73
2021/12/27 12:36:49;;;;;;;8.93;4.60;;;;;;;;;;5089452;28;20054;-75
2021/12/27 12:39:15;;;;;;;8.43;4.65;;;;;;;;;;5087993;28;20083;-72
2021/12/27 12:41:41;;;;;;;8.02;4.53;;;;;;;;;;5089332;28;20130;-72
2021/12/27 12:44:08;;;;;;;11.07;4.78;;;;;;;;;;5089229;28;20046;-71
2021/12/27 12:46:45;;;;;;;7.60;4.30;;;;;;;;;;5088282;28;20044;-75
2021/12/27 12:49:12;;;;;;;8.88;4.55;;;;;;;;;;5088916;28;20048;-69
2021/12/27 12:51:43;;;;;;;8.20;4.75;;;;;;;;;;5089395;28;20058;-72
2021/12/27 12:54:32;;;;;;;12.10;4.63;;;;;;;;;;5088876;28;20048;-72
2021/12/27 12:57:08;;;;;;;8.65;4.72;;;;;;;;;;5088488;28;20514;-70
2021/12/27 12:59:36;;;;;;;8.40;4.20;;;;;;;;;;5087498;28;20042;-71
2021/12/27 13:02:02;;;;;;;8.02;4.38;;;;;;;;;;5089403;28;20040;-70
2021/12/27 13:04:58;;;;;;;9.15;4.63;;;;;;;;;;5088992;28;20553;-70
2021/12/27 13:07:44;;;;;;;7.82;4.32;;;;;;;;;;5084092;28;20063;-71
2021/12/27 13:10:23;;;;;;;7.38;4.20;;;;;;;;;;5088354;28;20048;-72
2021/12/27 13:12:50;;;;;;;8.82;5.03;;;;;;;;;;5082596;28;20059;-71
2021/12/27 13:15:25;;;;;;;8.65;4.78;;;;;;;;;;5088839;28;20055;-72
2021/12/27 13:18:12;;;;;;;9.88;5.05;;;;;;;;;;5088760;28;20040;-72
2021/12/27 13:20:39;;;;;;;8.38;4.57;;;;;;;;;;5092635;28;20048;-72
2021/12/27 13:23:06;;;;;;;11.48;4.55;;;;;;;;;;5092661;28;20048;-72
2021/12/27 13:25:40;;;;;;;8.63;4.88;;;;;;;;;;5092079;28;20036;-72
2021/12/27 13:28:06;;;;;;;7.03;3.85;;;;;;;;;;5092078;28;20044;-71
2021/12/27 13:30:42;;;;;;;9.13;4.50;;;;;;;;;;5091158;28;20092;-71
2021/12/27 13:33:09;;;;;;;8.82;5.15;;;;;;;;;;5091080;28;20036;-72
2021/12/27 13:35:35;;;;;;;7.90;3.97;;;;;;;;;;5091483;28;20043;-71
2021/12/27 13:38:01;;;;;;;21.60;5.15;;;;;;;;;;5092569;28;20046;-75
2021/12/27 13:40:27;;;;;;;14.07;5.20;;;;;;;;;;5073376;28;20043;-77
2021/12/27 13:43:01;;;;;;;10.50;5.07;;;;;;;;;;5091864;28;20122;-75
2021/12/27 13:45:34;;;;;;;14.50;4.25;;;;;;;;;;5092016;28;20048;-74
2021/12/27 13:48:00;;;;;;;12.20;4.32;;;;;;;;;;5091588;28;20052;-75
2021/12/27 13:50:30;;;;;;;9.98;4.45;;;;;;;;;;5092067;28;20066;-74
2021/12/27 13:52:57;;;;;;;;;;;;;;;;;;5090522;28;20763;-74
2021/12/27 13:55:29;;;;;;;7.65;4.03;;;;;;;;;;5092443;28;19955;-76
2021/12/27 13:57:55;;;;;;;8.85;4.22;;;;;;;;;;5091181;28;20406;-75
2021/12/27 14:00:25;;;;;;;9.15;4.32;;;;;;;;;;5092200;28;20071;-74
2021/12/27 14:02:53;;;;;;;11.48;3.97;;;;;;;;;;5091577;28;20361;-73
2021/12/27 14:05:24;;;;;;;9.43;4.28;;;;;;;;;;5090333;28;20137;-72
2021/12/27 14:07:50;;;;;;;8.90;4.13;;;;;;;;;;5091475;28;20047;-73
2021/12/27 14:10:20;;;;;;;8.35;3.88;;;;;;;;;;5091955;28;20048;-73
2021/12/27 14:12:55;;;;;;;7.68;4.20;;;;;;;;;;5090894;28;20074;-72
2021/12/27 14:15:27;;;;;;;6.97;3.85;;;;;;;;;;5090298;28;20044;-73
2021/12/27 14:17:53;;;;;;;8.27;4.25;;;;;;;;;;5091721;28;20047;-71
2021/12/27 14:20:19;;;;;;;8.73;4.13;;;;;;;;;;5092432;28;20051;-71
2021/12/27 14:22:47;;;;;;;9.75;4.25;;;;;;;;;;5090678;28;20040;-74
2021/12/27 14:25:20;;;;;;;8.32;4.57;;;;;;;;;;5091921;28;20047;-72
2021/12/27 14:27:49;;;;;;;7.63;3.70;;;;;;;;;;5091068;28;20048;-72
2021/12/27 14:30:23;;;;;;;7.10;4.18;;;;;;;;;;5091348;28;20047;-72
2021/12/27 14:32:49;;;;;;;8.32;4.38;;;;;;;;;;5091268;28;20093;-72
2021/12/27 14:35:16;;;;;;;6.93;4.07;;;;;;;;;;5091679;28;20490;-72
2021/12/27 14:37:42;;;;;;;7.03;4.18;;;;;;;;;;5090824;28;20517;-72
2021/12/27 14:40:08;;;;;;;6.60;3.67;;;;;;;;;;5090818;28;20076;-73
2021/12/27 14:42:34;;;;;;;7.38;4.07;;;;;;;;;;5091869;28;20044;-72
2021/12/27 14:45:03;;;;;;;9.38;3.92;;;;;;;;;;5091645;28;20044;-73
2021/12/27 14:47:29;;;;;;;7.78;4.30;;;;;;;;;;5091288;28;20044;-72
2021/12/27 14:49:55;;;;;;;8.60;4.15;;;;;;;;;;5090860;28;20109;-72
2021/12/27 14:52:21;;;;;;;6.50;3.70;;;;;;;;;;5090934;28;20087;-72
2021/12/27 14:54:47;;;;;;;7.50;3.63;;;;;;;;;;5091086;28;20478;-72
2021/12/27 14:57:13;;;;;;;6.97;3.85;;;;;;;;;;5073098;28;20086;-71